Time;durP1;ratioP1;P1;durP2;ratioP2;P2;SDS_P1;SDS_P2;PMS_P1;PMS_P2;Temp;Humidity;BMP_temperature;BMP_pressure;BME280_temperature;BME280_humidity;BME280_pressure;Samples;Min_cycle;Max_cycle;Signal;HPM_P1;HPM_P2
2023/05/11 00:02:08;;;;;;;1.10;1.00;;;16.30;46.20;;;;;;4996308;28;20662;-64
2023/05/11 00:04:35;;;;;;;1.13;1.10;;;16.20;46.20;;;;;;5010406;28;20240;-66
2023/05/11 00:07:02;;;;;;;1.10;1.00;;;16.20;46.20;;;;;;5010537;28;20207;-65
2023/05/11 00:09:29;;;;;;;1.00;1.00;;;16.20;46.20;;;;;;5009599;28;20223;-65
2023/05/11 00:11:58;;;;;;;0.90;0.90;;;16.30;46.20;;;;;;5010891;28;20203;-65
2023/05/11 00:14:25;;;;;;;0.93;0.90;;;16.30;46.30;;;;;;5006884;28;20203;-65
2023/05/11 00:16:52;;;;;;;1.13;1.13;;;16.20;46.30;;;;;;5008094;28;20213;-66
2023/05/11 00:19:20;;;;;;;1.30;1.20;;;16.20;46.40;;;;;;5010424;28;20196;-65
2023/05/11 00:21:47;;;;;;;1.50;1.30;;;16.20;46.40;;;;;;5010321;28;20210;-64
2023/05/11 00:24:14;;;;;;;1.00;1.00;;;16.10;46.40;;;;;;5010534;28;20203;-65
2023/05/11 00:26:41;;;;;;;1.17;1.00;;;16.10;46.60;;;;;;5005294;28;20529;-65
2023/05/11 00:29:10;;;;;;;1.33;1.23;;;16.10;46.70;;;;;;5000709;28;20195;-65
2023/05/11 00:31:38;;;;;;;0.90;0.90;;;15.70;46.40;;;;;;5004669;28;20215;-66
2023/05/11 00:34:05;;;;;;;1.73;1.20;;;15.90;46.80;;;;;;4993199;28;20555;-66
2023/05/11 00:36:33;;;;;;;1.10;1.10;;;15.90;46.80;;;;;;4991946;28;20265;-66
2023/05/11 00:39:00;;;;;;;0.90;0.90;;;15.90;46.90;;;;;;4994916;28;20199;-66
2023/05/11 00:41:27;;;;;;;1.23;1.00;;;15.90;47.00;;;;;;4993225;28;20221;-66
2023/05/11 00:43:54;;;;;;;6.50;1.43;;;15.80;46.90;;;;;;5010461;28;20195;-65
2023/05/11 00:46:23;;;;;;;1.10;1.10;;;15.90;47.00;;;;;;4991739;28;20218;-65
2023/05/11 00:48:51;;;;;;;1.20;1.20;;;15.80;47.00;;;;;;5009604;28;20183;-65
2023/05/11 00:51:18;;;;;;;1.83;1.10;;;15.80;47.00;;;;;;5004125;28;20212;-65
2023/05/11 00:53:46;;;;;;;1.70;1.23;;;15.80;47.20;;;;;;5005159;28;20195;-65
2023/05/11 00:56:13;;;;;;;1.30;1.13;;;15.70;47.10;;;;;;4993392;28;20346;-65
2023/05/11 00:58:41;;;;;;;1.37;1.27;;;15.80;47.60;;;;;;5006175;28;21253;-65
2023/05/11 01:01:08;;;;;;;1.37;1.27;;;15.70;47.30;;;;;;5009609;28;20194;-65
2023/05/11 01:03:37;;;;;;;1.50;1.40;;;15.50;47.30;;;;;;4989585;28;20592;-65
2023/05/11 01:06:10;;;;;;;1.40;1.30;;;15.60;47.50;;;;;;5003952;28;20203;-65
2023/05/11 01:08:42;;;;;;;2.70;1.20;;;15.50;47.70;;;;;;4995154;28;20639;-65
2023/05/11 01:11:17;;;;;;;1.20;1.10;;;15.40;47.70;;;;;;4991938;28;20640;-65
2023/05/11 01:13:51;;;;;;;1.20;1.20;;;15.00;47.50;;;;;;5010237;28;20198;-66
2023/05/11 01:16:21;;;;;;;1.50;1.40;;;15.40;47.90;;;;;;4987729;28;20208;-66
2023/05/11 01:19:00;;;;;;;2.10;1.40;;;15.40;48.00;;;;;;4989283;28;20229;-66
2023/05/11 01:21:33;;;;;;;1.20;1.10;;;15.40;48.00;;;;;;4991837;28;20232;-66
2023/05/11 01:24:20;;;;;;;1.50;1.40;;;15.30;48.00;;;;;;4990662;28;20305;-66
2023/05/11 01:27:06;;;;;;;1.47;1.30;;;15.40;48.00;;;;;;4988703;28;20199;-65
2023/05/11 01:30:05;;;;;;;1.77;1.40;;;15.40;48.00;;;;;;5004115;28;20250;-65
2023/05/11 01:32:36;;;;;;;1.23;1.10;;;15.40;48.10;;;;;;4996838;28;20183;-65
2023/05/11 01:35:07;;;;;;;1.47;1.13;;;15.40;48.00;;;;;;4991972;28;20223;-66
2023/05/11 01:37:36;;;;;;;5.37;1.40;;;15.40;48.00;;;;;;5009076;28;20226;-65
2023/05/11 01:40:10;;;;;;;1.10;1.07;;;15.40;48.10;;;;;;4989863;28;20195;-66
2023/05/11 01:42:43;;;;;;;1.40;1.30;;;15.30;48.00;;;;;;5008889;28;20207;-65
2023/05/11 01:45:12;;;;;;;1.67;1.50;;;15.30;48.70;;;;;;5001823;28;20196;-66
2023/05/11 01:47:43;;;;;;;1.10;1.10;;;15.30;48.20;;;;;;5006866;28;20229;-65
2023/05/11 01:50:13;;;;;;;1.40;1.30;;;15.20;48.10;;;;;;5002799;28;20225;-65
2023/05/11 01:52:41;;;;;;;3.57;1.80;;;15.10;48.10;;;;;;4997670;28;20199;-65
2023/05/11 01:55:11;;;;;;;1.50;1.20;;;15.10;48.80;;;;;;5001560;28;20198;-65
2023/05/11 01:57:38;;;;;;;1.77;1.53;;;15.10;48.20;;;;;;5009637;28;20196;-65
2023/05/11 02:00:09;;;;;;;1.73;1.30;;;15.10;48.30;;;;;;4986536;28;20197;-64
2023/05/11 02:02:46;;;;;;;1.20;1.20;;;15.20;48.30;;;;;;5005730;28;21039;-66
2023/05/11 02:05:18;;;;;;;1.67;1.43;;;15.20;48.30;;;;;;5009511;28;20207;-66
2023/05/11 02:07:47;;;;;;;1.10;1.10;;;15.20;48.30;;;;;;4989911;28;20199;-65
2023/05/11 02:10:16;;;;;;;1.40;1.27;;;15.20;48.30;;;;;;4991886;28;20296;-65
2023/05/11 02:12:45;;;;;;;1.30;1.20;;;15.20;48.40;;;;;;4989156;28;20210;-65
2023/05/11 02:15:14;;;;;;;1.10;1.10;;;15.10;48.40;;;;;;4997551;28;20199;-66
2023/05/11 02:17:44;;;;;;;3.63;1.63;;;15.00;48.40;;;;;;5006222;28;20198;-65
2023/05/11 02:20:12;;;;;;;1.50;1.40;;;15.00;48.50;;;;;;5009744;28;20666;-65
2023/05/11 02:22:41;;;;;;;2.23;1.30;;;14.90;48.60;;;;;;4993453;28;20204;-66
2023/05/11 02:25:10;;;;;;;1.70;1.30;;;14.90;48.60;;;;;;5012563;28;20674;-66
2023/05/11 02:27:38;;;;;;;2.83;1.30;;;14.90;48.60;;;;;;4992992;28;20215;-66
2023/05/11 02:30:07;;;;;;;3.27;1.67;;;14.80;48.60;;;;;;5007392;28;20214;-66
2023/05/11 02:32:39;;;;;;;1.20;1.10;;;14.80;48.80;;;;;;4994161;28;20677;-66
2023/05/11 02:35:13;;;;;;;1.10;1.10;;;14.80;48.80;;;;;;4991288;28;20666;-66
2023/05/11 02:37:44;;;;;;;1.00;1.00;;;14.70;48.80;;;;;;4993345;28;20221;-65
2023/05/11 02:40:17;;;;;;;1.60;1.50;;;14.70;48.90;;;;;;4992093;28;20203;-65
2023/05/11 02:42:47;;;;;;;1.17;1.13;;;14.70;48.90;;;;;;5008883;28;20195;-65
2023/05/11 02:45:16;;;;;;;1.47;1.30;;;14.80;49.00;;;;;;4994331;28;20277;-65
2023/05/11 02:47:47;;;;;;;4.60;1.87;;;14.70;49.00;;;;;;5011663;28;20680;-65
2023/05/11 02:50:23;;;;;;;2.60;2.00;;;14.70;49.10;;;;;;4994214;28;20206;-65
2023/05/11 02:52:53;;;;;;;3.83;2.03;;;14.70;49.10;;;;;;5011310;28;20289;-65
2023/05/11 02:55:22;;;;;;;1.90;1.50;;;14.70;49.00;;;;;;5009477;28;20548;-65
2023/05/11 02:57:49;;;;;;;1.67;1.57;;;14.60;48.90;;;;;;4995984;28;20308;-65
2023/05/11 03:00:17;;;;;;;2.00;1.77;;;14.50;48.90;;;;;;5002990;28;20197;-65
2023/05/11 03:02:44;;;;;;;1.50;1.40;;;14.50;49.10;;;;;;4990584;28;20597;-65
2023/05/11 03:05:11;;;;;;;1.87;1.77;;;14.40;49.10;;;;;;5011658;28;20191;-66
2023/05/11 03:07:40;;;;;;;1.70;1.60;;;14.40;49.00;;;;;;5010980;28;20542;-66
2023/05/11 03:10:08;;;;;;;1.60;1.50;;;14.50;49.10;;;;;;5008012;28;20198;-66
2023/05/11 03:12:39;;;;;;;1.10;1.10;;;14.40;49.00;;;;;;4994371;28;20224;-67
2023/05/11 03:15:10;;;;;;;1.10;1.10;;;14.40;49.00;;;;;;4994815;28;20302;-67
2023/05/11 03:17:40;;;;;;;1.50;1.40;;;14.40;49.00;;;;;;5008449;28;20194;-66
2023/05/11 03:20:11;;;;;;;2.03;1.80;;;14.40;49.10;;;;;;4999381;28;20569;-66
2023/05/11 03:22:38;;;;;;;1.63;1.50;;;14.50;49.20;;;;;;5011451;28;20194;-66
2023/05/11 03:25:08;;;;;;;1.60;1.43;;;14.50;49.10;;;;;;5007899;28;20535;-66
2023/05/11 03:27:37;;;;;;;2.80;2.13;;;14.50;49.20;;;;;;5010663;28;20245;-66
2023/05/11 03:30:09;;;;;;;2.73;1.83;;;14.50;49.30;;;;;;4995042;28;20297;-66
2023/05/11 03:32:41;;;;;;;3.03;1.90;;;14.50;49.30;;;;;;4990007;28;20223;-66
2023/05/11 03:35:09;;;;;;;4.63;1.77;;;14.40;49.30;;;;;;4993410;28;20229;-65
2023/05/11 03:37:38;;;;;;;1.70;1.60;;;14.30;49.30;;;;;;4985889;28;20672;-65
2023/05/11 03:40:09;;;;;;;3.40;1.80;;;14.40;49.50;;;;;;4993425;28;20209;-65
2023/05/11 03:42:59;;;;;;;1.90;1.80;;;14.40;49.50;;;;;;4993289;28;20213;-65
2023/05/11 03:45:28;;;;;;;2.10;1.87;;;14.40;49.50;;;;;;4990021;28;20208;-65
2023/05/11 03:47:57;;;;;;;2.20;1.83;;;14.40;49.40;;;;;;5009380;28;20210;-65
2023/05/11 03:50:24;;;;;;;4.63;1.90;;;14.40;49.40;;;;;;4998898;28;20597;-66
2023/05/11 03:52:52;;;;;;;2.00;1.80;;;14.50;49.40;;;;;;5005444;28;20221;-66
2023/05/11 03:55:23;;;;;;;3.50;1.90;;;14.50;49.30;;;;;;4996727;28;20311;-66
2023/05/11 03:57:50;;;;;;;3.00;1.93;;;14.40;49.30;;;;;;5006475;28;20207;-64
2023/05/11 04:00:18;;;;;;;3.27;2.07;;;14.40;49.30;;;;;;4990473;28;20210;-64
2023/05/11 04:02:45;;;;;;;2.10;1.90;;;14.40;49.30;;;;;;4990202;28;20288;-64
2023/05/11 04:05:13;;;;;;;2.23;2.03;;;14.40;49.30;;;;;;4998906;28;20303;-64
2023/05/11 04:07:43;;;;;;;3.17;2.07;;;14.40;49.30;;;;;;4992553;28;20211;-65
2023/05/11 04:10:10;;;;;;;2.47;2.00;;;14.40;49.30;;;;;;5007742;28;20221;-65
2023/05/11 04:12:39;;;;;;;2.57;2.10;;;14.40;49.20;;;;;;4991734;28;20701;-65
2023/05/11 04:15:07;;;;;;;2.20;2.00;;;14.40;49.20;;;;;;5008611;28;20203;-65
2023/05/11 04:17:34;;;;;;;5.00;2.60;;;14.50;49.20;;;;;;4983075;28;20207;-65
2023/05/11 04:20:01;;;;;;;3.20;2.30;;;14.50;49.10;;;;;;5006851;28;20202;-66
2023/05/11 04:22:28;;;;;;;3.17;2.60;;;14.50;49.10;;;;;;4992687;28;20285;-66
2023/05/11 04:24:56;;;;;;;3.30;2.70;;;14.50;49.10;;;;;;5002680;28;20201;-66
2023/05/11 04:27:23;;;;;;;3.90;2.60;;;14.50;49.10;;;;;;5010456;28;20206;-66
2023/05/11 04:29:52;;;;;;;2.47;2.27;;;14.40;49.00;;;;;;5008599;28;20198;-65
2023/05/11 04:32:19;;;;;;;2.57;2.37;;;14.40;49.00;;;;;;5005128;28;20210;-65
2023/05/11 04:34:46;;;;;;;2.30;2.10;;;14.50;49.10;;;;;;4991558;28;20281;-66
2023/05/11 04:37:14;;;;;;;4.57;2.10;;;14.50;49.10;;;;;;4985388;28;20605;-66
2023/05/11 04:39:42;;;;;;;4.13;2.57;;;14.50;49.70;;;;;;4992780;28;20211;-65
2023/05/11 04:42:09;;;;;;;2.37;2.07;;;14.50;49.10;;;;;;5006326;28;20253;-66
2023/05/11 04:44:38;;;;;;;2.70;2.13;;;14.60;49.20;;;;;;4993151;28;20242;-65
2023/05/11 04:47:07;;;;;;;2.70;1.93;;;14.60;49.30;;;;;;4987692;28;20206;-66
2023/05/11 04:49:34;;;;;;;3.20;2.43;;;14.60;49.30;;;;;;4992994;28;20207;-66
2023/05/11 04:52:02;;;;;;;3.50;2.50;;;14.60;50.10;;;;;;5000028;28;20227;-66
2023/05/11 04:54:30;;;;;;;3.73;2.80;;;14.60;49.60;;;;;;4994928;28;20264;-66
2023/05/11 04:56:57;;;;;;;5.37;2.37;;;14.60;49.60;;;;;;5009955;28;20198;-67
2023/05/11 04:59:24;;;;;;;5.23;2.33;;;14.60;49.60;;;;;;5007144;28;20199;-65
2023/05/11 05:01:51;;;;;;;11.50;2.63;;;14.60;49.60;;;;;;5005637;28;20202;-65
2023/05/11 05:04:20;;;;;;;3.30;2.30;;;14.60;49.70;;;;;;5007455;28;20235;-65
2023/05/11 05:06:47;;;;;;;3.60;2.20;;;14.60;49.70;;;;;;5009529;28;20685;-66
2023/05/11 05:09:16;;;;;;;4.10;2.80;;;14.70;50.00;;;;;;4993050;28;20254;-66
2023/05/11 05:11:43;;;;;;;2.47;2.10;;;14.70;49.80;;;;;;4993056;28;20602;-66
2023/05/11 05:14:10;;;;;;;1.87;1.70;;;14.70;49.80;;;;;;5010139;28;20276;-67
2023/05/11 05:16:38;;;;;;;2.90;1.83;;;14.70;49.70;;;;;;4992441;28;20210;-66
2023/05/11 05:19:05;;;;;;;2.20;2.00;;;14.70;49.70;;;;;;5009864;28;20284;-67
2023/05/11 05:21:37;;;;;;;2.00;1.90;;;14.70;49.70;;;;;;4992523;28;20293;-65
2023/05/11 05:24:05;;;;;;;2.30;2.10;;;14.80;49.80;;;;;;5005465;28;20198;-65
2023/05/11 05:26:32;;;;;;;3.57;2.50;;;14.80;49.80;;;;;;5003095;28;20562;-66
2023/05/11 05:29:00;;;;;;;3.50;2.27;;;14.80;49.70;;;;;;4990089;28;20284;-65
2023/05/11 05:31:27;;;;;;;5.30;2.60;;;14.80;49.60;;;;;;5008562;28;20202;-65
2023/05/11 05:33:55;;;;;;;3.00;2.00;;;14.90;49.80;;;;;;4986996;28;20283;-65
2023/05/11 05:36:22;;;;;;;2.10;1.93;;;14.90;49.80;;;;;;4988370;28;20210;-65
2023/05/11 05:38:51;;;;;;;2.37;2.07;;;14.90;49.80;;;;;;5002918;28;20209;-65
2023/05/11 05:41:21;;;;;;;2.57;1.90;;;14.90;49.70;;;;;;4991536;28;20604;-66
2023/05/11 05:43:48;;;;;;;3.87;2.50;;;15.00;49.50;;;;;;4992466;28;20666;-65
2023/05/11 05:46:16;;;;;;;4.63;2.20;;;15.00;49.50;;;;;;4991430;28;20210;-65
2023/05/11 05:48:43;;;;;;;3.00;2.07;;;15.00;49.50;;;;;;4991550;28;20336;-65
2023/05/11 05:51:10;;;;;;;2.17;1.97;;;15.10;49.50;;;;;;4991236;28;20661;-65
2023/05/11 05:53:38;;;;;;;2.37;2.17;;;15.20;49.60;;;;;;4991401;28;20226;-64
2023/05/11 05:56:07;;;;;;;2.17;1.97;;;15.20;49.50;;;;;;4993142;28;20220;-65
2023/05/11 05:58:34;;;;;;;3.00;1.90;;;15.20;49.50;;;;;;4999951;28;20221;-66
2023/05/11 06:01:01;;;;;;;2.40;2.20;;;15.30;49.60;;;;;;5002660;28;20218;-66
2023/05/11 06:03:29;;;;;;;4.20;2.30;;;15.30;49.60;;;;;;4991514;28;20251;-66
2023/05/11 06:05:57;;;;;;;2.10;2.00;;;15.40;49.70;;;;;;4991979;28;20212;-65
2023/05/11 06:08:24;;;;;;;2.63;2.43;;;15.40;49.70;;;;;;4991353;28;20228;-65
2023/05/11 06:10:51;;;;;;;4.30;2.37;;;15.50;49.30;;;;;;4992455;28;20218;-66
2023/05/11 06:13:20;;;;;;;4.30;2.60;;;15.50;49.10;;;;;;4993876;28;20310;-66
2023/05/11 06:15:47;;;;;;;4.07;2.30;;;15.50;49.10;;;;;;4991740;28;20266;-66
2023/05/11 06:18:31;;;;;;;2.17;1.80;;;15.60;49.10;;;;;;4985026;28;20227;-66
2023/05/11 06:20:59;;;;;;;4.17;2.37;;;15.60;49.10;;;;;;4989598;28;20728;-65
2023/05/11 06:23:28;;;;;;;3.47;2.50;;;15.60;49.30;;;;;;5006006;28;20294;-65
2023/05/11 06:25:55;;;;;;;2.10;1.90;;;15.70;48.80;;;;;;4983847;28;20197;-65
2023/05/11 06:28:24;;;;;;;2.40;2.20;;;15.70;48.50;;;;;;4986001;28;20563;-65
2023/05/11 06:30:57;;;;;;;2.30;2.03;;;15.70;48.50;;;;;;4989139;28;20223;-64
2023/05/11 06:33:25;;;;;;;4.07;2.30;;;15.40;48.30;;;;;;5013550;28;20310;-65
2023/05/11 06:35:53;;;;;;;3.13;2.20;;;15.90;48.60;;;;;;4978713;28;20610;-64
2023/05/11 06:38:21;;;;;;;2.33;2.13;;;15.90;48.40;;;;;;4983330;28;20221;-65
2023/05/11 06:40:52;;;;;;;3.30;2.17;;;16.00;48.30;;;;;;4987111;28;20201;-65
2023/05/11 06:43:19;;;;;;;3.73;1.80;;;16.10;48.10;;;;;;4987948;28;20188;-66
2023/05/11 06:45:50;;;;;;;2.33;2.13;;;16.20;48.90;;;;;;4998733;28;20594;-66
2023/05/11 06:48:17;;;;;;;2.63;2.00;;;16.20;48.30;;;;;;4984795;28;20411;-65
2023/05/11 06:50:44;;;;;;;2.53;2.33;;;16.20;48.10;;;;;;4985904;28;20525;-65
2023/05/11 06:53:13;;;;;;;2.50;2.30;;;16.30;48.10;;;;;;4989176;28;20218;-63
2023/05/11 06:55:40;;;;;;;8.57;2.80;;;16.40;48.10;;;;;;4985914;28;20335;-65
2023/05/11 06:58:07;;;;;;;3.07;2.17;;;16.50;48.10;;;;;;4983138;28;20200;-65
2023/05/11 07:00:34;;;;;;;5.47;2.30;;;16.60;48.10;;;;;;4984862;28;20193;-64
2023/05/11 07:03:02;;;;;;;3.20;2.40;;;16.70;48.10;;;;;;4994160;28;20231;-65
2023/05/11 07:05:30;;;;;;;3.30;2.27;;;16.70;47.60;;;;;;4986115;28;20573;-65
2023/05/11 07:07:57;;;;;;;2.07;1.87;;;16.80;47.20;;;;;;4987132;28;20560;-64
2023/05/11 07:10:24;;;;;;;3.20;2.10;;;16.80;47.00;;;;;;4987453;28;20254;-65
2023/05/11 07:12:52;;;;;;;3.70;2.50;;;16.90;47.00;;;;;;4985343;28;20739;-65
2023/05/11 07:15:19;;;;;;;2.57;2.00;;;16.90;47.00;;;;;;4982755;28;20204;-65
2023/05/11 07:17:47;;;;;;;2.10;1.90;;;17.00;47.20;;;;;;4983496;28;20200;-65
2023/05/11 07:20:16;;;;;;;3.47;2.00;;;17.00;47.30;;;;;;4985822;28;20279;-65
2023/05/11 07:22:43;;;;;;;2.70;1.93;;;17.10;47.40;;;;;;4988487;28;20611;-64
2023/05/11 07:25:10;;;;;;;1.97;1.80;;;17.20;47.50;;;;;;4983691;28;20221;-65
2023/05/11 07:27:38;;;;;;;3.07;1.77;;;17.20;47.50;;;;;;4986338;28;20211;-65
2023/05/11 07:30:06;;;;;;;2.87;1.87;;;17.30;47.50;;;;;;4990641;28;20231;-66
2023/05/11 07:32:34;;;;;;;3.20;2.10;;;17.50;47.70;;;;;;4980841;28;20529;-66
2023/05/11 07:35:01;;;;;;;2.27;1.73;;;17.50;47.50;;;;;;4986658;28;20276;-66
2023/05/11 07:37:29;;;;;;;2.13;1.80;;;17.60;47.00;;;;;;4985347;28;20337;-66
2023/05/11 07:39:56;;;;;;;2.30;2.10;;;17.70;46.60;;;;;;4990636;28;20284;-66
2023/05/11 07:42:23;;;;;;;3.17;1.90;;;17.80;46.60;;;;;;4983496;28;20188;-65
2023/05/11 07:44:50;;;;;;;1.90;1.70;;;17.80;47.00;;;;;;4986974;28;20203;-65
2023/05/11 07:47:19;;;;;;;3.23;1.50;;;17.90;46.30;;;;;;4983762;28;20295;-65
2023/05/11 07:49:47;;;;;;;1.87;1.60;;;18.00;46.30;;;;;;4988956;28;20222;-65
2023/05/11 07:52:14;;;;;;;1.70;1.60;;;18.10;46.00;;;;;;4984904;28;20197;-65
2023/05/11 07:54:43;;;;;;;11.67;2.23;;;18.20;45.50;;;;;;4980996;28;20211;-65
2023/05/11 07:57:12;;;;;;;3.27;1.47;;;18.30;45.40;;;;;;4982045;28;20203;-65
2023/05/11 07:59:40;;;;;;;4.97;1.80;;;18.30;44.80;;;;;;4984008;28;20679;-65
2023/05/11 08:02:08;;;;;;;2.57;1.60;;;18.40;44.80;;;;;;4985558;28;20303;-65
2023/05/11 08:04:36;;;;;;;2.20;1.67;;;18.50;44.70;;;;;;4985761;28;20647;-65
2023/05/11 08:07:03;;;;;;;1.63;1.53;;;18.60;44.30;;;;;;4986894;28;20191;-65
2023/05/11 08:09:31;;;;;;;2.87;1.50;;;18.70;44.00;;;;;;4981303;28;20626;-65
2023/05/11 08:12:02;;;;;;;1.43;1.30;;;18.70;43.70;;;;;;4989807;28;20665;-65
2023/05/11 08:14:29;;;;;;;1.90;1.80;;;18.80;43.80;;;;;;4990268;28;20549;-65
2023/05/11 08:16:56;;;;;;;3.53;1.77;;;18.90;43.50;;;;;;4987177;28;20290;-64
2023/05/11 08:19:23;;;;;;;4.47;1.57;;;19.00;43.00;;;;;;4988837;28;20199;-65
2023/05/11 08:21:50;;;;;;;3.37;1.60;;;19.00;42.50;;;;;;4980002;28;20251;-64
2023/05/11 08:24:17;;;;;;;1.98;1.58;;;19.10;42.50;;;;;;4989167;28;20221;-65
2023/05/11 08:26:44;;;;;;;3.90;1.60;;;19.10;42.60;;;;;;4981061;28;20207;-65
2023/05/11 08:29:13;;;;;;;1.45;1.35;;;19.20;42.40;;;;;;4990320;28;20263;-64
2023/05/11 08:31:42;;;;;;;2.80;1.57;;;19.30;41.90;;;;;;4979521;28;20233;-65
2023/05/11 08:34:09;;;;;;;4.15;1.65;;;19.40;41.00;;;;;;4989825;28;20689;-65
2023/05/11 08:36:37;;;;;;;6.07;1.50;;;19.40;40.80;;;;;;4981966;28;20284;-66
2023/05/11 08:39:04;;;;;;;2.00;1.63;;;19.50;40.80;;;;;;4986892;28;20205;-66
2023/05/11 08:41:32;;;;;;;2.15;1.40;;;19.60;38.80;;;;;;4982057;28;20296;-66
2023/05/11 08:44:00;;;;;;;3.90;1.60;;;19.60;38.50;;;;;;4985824;28;20260;-66
2023/05/11 08:46:30;;;;;;;1.50;1.40;;;19.60;38.50;;;;;;4977012;28;20209;-65
2023/05/11 08:48:58;;;;;;;3.28;1.70;;;19.70;38.70;;;;;;4982473;28;20728;-65
2023/05/11 08:51:27;;;;;;;4.03;1.58;;;19.80;38.00;;;;;;4979519;28;21430;-65
2023/05/11 08:53:56;;;;;;;3.47;1.47;;;19.80;37.40;;;;;;4987078;28;20224;-64
2023/05/11 08:56:26;;;;;;;1.50;1.40;;;19.80;37.00;;;;;;4986048;28;20195;-65
2023/05/11 08:58:55;;;;;;;1.60;1.50;;;19.90;37.50;;;;;;4990147;28;20206;-65
2023/05/11 09:01:23;;;;;;;2.50;1.55;;;19.90;37.50;;;;;;4989239;28;20273;-65
2023/05/11 09:03:52;;;;;;;1.85;1.50;;;20.00;37.10;;;;;;5002150;28;20277;-64
2023/05/11 09:06:20;;;;;;;4.15;1.50;;;20.10;36.80;;;;;;5005717;28;20191;-65
2023/05/11 09:08:48;;;;;;;1.58;1.48;;;20.10;36.40;;;;;;5002024;28;20619;-65
2023/05/11 09:11:15;;;;;;;3.90;1.70;;;20.10;36.10;;;;;;5006880;28;20606;-66
2023/05/11 09:13:42;;;;;;;6.80;1.50;;;20.20;35.80;;;;;;4984520;28;20381;-65
2023/05/11 09:16:09;;;;;;;3.85;1.65;;;20.10;36.10;;;;;;5005695;28;20194;-65
2023/05/11 09:18:45;;;;;;;1.88;1.70;;;20.20;36.20;;;;;;4989542;28;20237;-65
2023/05/11 09:21:14;;;;;;;1.50;1.40;;;20.30;36.30;;;;;;4990971;28;20198;-65
2023/05/11 09:23:41;;;;;;;1.77;1.27;;;20.30;36.00;;;;;;5004467;28;20183;-65
2023/05/11 09:26:14;;;;;;;1.30;1.20;;;20.40;36.40;;;;;;4991082;28;20202;-66
2023/05/11 09:28:48;;;;;;;4.63;1.70;;;20.40;36.50;;;;;;5006041;28;20188;-65
2023/05/11 09:31:35;;;;;;;2.35;1.23;;;20.50;35.90;;;;;;5010187;28;20202;-66
2023/05/11 09:34:14;;;;;;;3.67;1.35;;;20.60;36.20;;;;;;4994220;28;20211;-65
2023/05/11 09:36:43;;;;;;;2.10;1.48;;;20.70;36.30;;;;;;5010276;28;20313;-65
2023/05/11 09:39:11;;;;;;;4.28;1.42;;;20.70;36.10;;;;;;5011879;28;20211;-65
2023/05/11 09:41:38;;;;;;;4.10;1.42;;;20.70;35.80;;;;;;5005714;28;20570;-65
2023/05/11 09:44:10;;;;;;;3.17;1.30;;;20.70;35.30;;;;;;5011157;28;20206;-65
2023/05/11 09:46:41;;;;;;;1.45;1.35;;;20.70;35.50;;;;;;5004665;28;20206;-66
2023/05/11 09:49:09;;;;;;;1.52;1.42;;;20.80;35.90;;;;;;5011480;28;20211;-66
2023/05/11 09:51:39;;;;;;;1.40;1.30;;;20.90;36.70;;;;;;5007739;28;20226;-66
2023/05/11 09:54:18;;;;;;;2.42;1.58;;;20.90;35.50;;;;;;5011529;28;20211;-65
2023/05/11 09:56:46;;;;;;;3.55;1.40;;;21.00;35.30;;;;;;5008518;28;20250;-65
2023/05/11 09:59:16;;;;;;;1.60;1.50;;;21.10;35.10;;;;;;4994935;28;20199;-64
2023/05/11 10:01:43;;;;;;;1.40;1.30;;;21.10;34.90;;;;;;5010792;28;20199;-65
2023/05/11 10:04:10;;;;;;;5.35;1.85;;;21.10;34.90;;;;;;5010798;28;20587;-66
2023/05/11 10:06:48;;;;;;;3.40;1.33;;;21.10;34.80;;;;;;5001552;28;20204;-66
2023/05/11 10:09:23;;;;;;;1.25;1.23;;;21.20;35.00;;;;;;5010274;28;20207;-67
2023/05/11 10:11:51;;;;;;;1.33;1.23;;;21.20;35.10;;;;;;4995740;28;20290;-66
2023/05/11 10:14:19;;;;;;;1.85;1.50;;;21.30;35.10;;;;;;4998344;28;20288;-66
2023/05/11 10:16:47;;;;;;;1.63;1.33;;;21.40;35.30;;;;;;5008998;28;20726;-65
2023/05/11 10:19:14;;;;;;;1.20;1.20;;;21.50;35.50;;;;;;5011023;28;20261;-65
2023/05/11 10:21:42;;;;;;;4.53;1.23;;;21.60;35.50;;;;;;4992298;28;20231;-67
2023/05/11 10:24:10;;;;;;;5.40;1.35;;;21.70;35.40;;;;;;5010431;28;20230;-66
2023/05/11 10:26:39;;;;;;;1.60;1.40;;;21.80;35.00;;;;;;5003526;28;20199;-67
2023/05/11 10:29:06;;;;;;;1.40;1.30;;;21.80;34.80;;;;;;5011253;28;20691;-66
2023/05/11 10:31:34;;;;;;;1.40;1.30;;;21.80;35.10;;;;;;5010777;28;20243;-65
2023/05/11 10:34:02;;;;;;;3.35;1.67;;;21.90;35.30;;;;;;5008511;28;20264;-65
2023/05/11 10:36:30;;;;;;;1.67;1.40;;;21.90;34.30;;;;;;5007234;28;20282;-66
2023/05/11 10:38:57;;;;;;;1.67;1.23;;;21.90;34.20;;;;;;5006514;28;20295;-65
2023/05/11 10:41:45;;;;;;;2.13;1.20;;;21.90;33.90;;;;;;5008135;28;20280;-65
2023/05/11 10:44:54;;;;;;;1.33;1.23;;;21.80;34.00;;;;;;5010219;28;20263;-65
2023/05/11 10:47:57;;;;;;;1.00;1.00;;;21.80;33.60;;;;;;4980191;28;20208;-68
2023/05/11 10:50:59;;;;;;;5.25;1.50;;;21.90;33.90;;;;;;4950057;28;20216;-67
2023/05/11 10:53:49;;;;;;;4.53;1.52;;;21.90;33.50;;;;;;5003796;28;20736;-67
2023/05/11 10:56:34;;;;;;;2.97;1.40;;;21.80;33.50;;;;;;4999931;28;20480;-66
2023/05/11 10:59:45;;;;;;;1.50;1.40;;;21.80;34.00;;;;;;5009719;28;20195;-67
2023/05/11 11:02:12;;;;;;;2.17;1.40;;;21.80;34.10;;;;;;5008326;28;20651;-68
2023/05/11 11:04:44;;;;;;;8.75;1.70;;;21.90;34.10;;;;;;5009764;28;20343;-67
2023/05/11 11:07:15;;;;;;;1.65;1.55;;;21.90;34.30;;;;;;5007416;28;20232;-66
2023/05/11 11:09:56;;;;;;;3.15;1.50;;;22.00;34.40;;;;;;5009018;28;20199;-66
2023/05/11 11:12:25;;;;;;;1.95;1.35;;;22.00;34.20;;;;;;4990038;28;20218;-67
2023/05/11 11:14:59;;;;;;;1.60;1.50;;;22.00;34.10;;;;;;5010530;28;20215;-66
2023/05/11 11:17:30;;;;;;;1.45;1.33;;;22.50;34.80;;;;;;5003118;28;20204;-66
2023/05/11 11:19:59;;;;;;;3.75;1.48;;;22.00;34.80;;;;;;5005184;28;20230;-66
2023/05/11 11:22:48;;;;;;;1.33;1.27;;;22.10;35.00;;;;;;4991895;28;20195;-67
2023/05/11 11:25:36;;;;;;;3.05;1.40;;;22.10;34.90;;;;;;4990085;28;20205;-67
2023/05/11 11:28:04;;;;;;;1.50;1.40;;;22.20;34.60;;;;;;4992571;28;20213;-67
2023/05/11 11:30:32;;;;;;;4.70;1.50;;;22.20;34.70;;;;;;5007179;28;20210;-67
2023/05/11 11:33:31;;;;;;;1.30;1.20;;;22.20;34.40;;;;;;5004999;28;20222;-67
2023/05/11 11:35:58;;;;;;;1.52;1.42;;;22.20;34.50;;;;;;5009356;28;20226;-67
2023/05/11 11:38:25;;;;;;;2.30;1.45;;;22.40;34.70;;;;;;4992155;28;20915;-67
2023/05/11 11:40:52;;;;;;;1.40;1.30;;;22.70;34.80;;;;;;5006697;28;20195;-67
2023/05/11 11:43:21;;;;;;;9.13;1.42;;;22.40;34.50;;;;;;5009207;28;20229;-67
2023/05/11 11:45:53;;;;;;;4.15;1.67;;;22.40;34.20;;;;;;5004410;28;20239;-67
2023/05/11 11:48:29;;;;;;;4.40;1.70;;;22.40;33.80;;;;;;5005125;28;20191;-66
2023/05/11 11:51:04;;;;;;;2.75;1.50;;;22.40;33.80;;;;;;4991990;28;20202;-67
2023/05/11 11:53:58;;;;;;;1.30;1.20;;;22.30;33.70;;;;;;5003020;28;20211;-67
2023/05/11 11:56:44;;;;;;;1.15;1.10;;;22.30;34.00;;;;;;4991738;28;20671;-67
2023/05/11 11:59:13;;;;;;;1.38;1.27;;;22.40;34.10;;;;;;5007389;28;20265;-68
2023/05/11 12:01:44;;;;;;;5.60;1.50;;;22.50;34.20;;;;;;5003071;28;20205;-67
2023/05/11 12:04:50;;;;;;;1.70;1.45;;;22.50;33.70;;;;;;5005260;28;20229;-67
2023/05/11 12:07:20;;;;;;;1.70;1.60;;;22.50;33.50;;;;;;5005427;28;20606;-67
2023/05/11 12:09:47;;;;;;;5.85;1.92;;;22.50;33.60;;;;;;5008625;28;20210;-67
2023/05/11 12:12:18;;;;;;;4.30;1.58;;;22.50;33.70;;;;;;5009075;28;20207;-67
2023/05/11 12:14:47;;;;;;;1.98;1.55;;;22.50;33.90;;;;;;5005013;28;20770;-67
2023/05/11 12:17:23;;;;;;;1.65;1.50;;;22.50;33.60;;;;;;4990520;28;20234;-67
2023/05/11 12:19:50;;;;;;;4.50;1.60;;;22.50;33.80;;;;;;5008216;28;20205;-67
2023/05/11 12:22:22;;;;;;;1.23;1.23;;;22.60;33.90;;;;;;5003732;28;20202;-67
2023/05/11 12:24:50;;;;;;;6.10;1.75;;;22.70;33.80;;;;;;5005298;28;20184;-67
2023/05/11 12:27:17;;;;;;;3.63;1.55;;;22.70;33.60;;;;;;5002331;28;20287;-67
2023/05/11 12:29:49;;;;;;;1.92;1.50;;;22.70;34.00;;;;;;5006588;28;20273;-67
2023/05/11 12:32:26;;;;;;;6.55;1.58;;;22.70;33.80;;;;;;5008426;28;20560;-67
2023/05/11 12:35:00;;;;;;;3.42;1.73;;;22.70;33.30;;;;;;5005675;28;20630;-67
2023/05/11 12:37:28;;;;;;;1.60;1.50;;;22.70;33.30;;;;;;4987111;28;20209;-67
2023/05/11 12:39:56;;;;;;;1.27;1.23;;;22.70;33.20;;;;;;4983430;28;20302;-68
2023/05/11 12:42:23;;;;;;;1.58;1.30;;;22.70;33.40;;;;;;4989609;28;20200;-66
2023/05/11 12:44:51;;;;;;;3.08;1.60;;;22.80;33.40;;;;;;4993121;28;20199;-66
2023/05/11 12:47:20;;;;;;;1.40;1.35;;;22.70;32.90;;;;;;5008367;28;21479;-67
2023/05/11 12:49:47;;;;;;;1.42;1.33;;;22.60;33.10;;;;;;5002191;28;20222;-67
2023/05/11 12:52:14;;;;;;;1.52;1.42;;;22.70;33.60;;;;;;5009211;28;20195;-67
2023/05/11 12:54:49;;;;;;;3.42;1.50;;;22.80;34.00;;;;;;5003987;28;20296;-68
2023/05/11 12:57:24;;;;;;;1.50;1.40;;;22.90;33.70;;;;;;4987990;28;20210;-67
2023/05/11 13:00:10;;;;;;;2.45;1.50;;;22.90;33.40;;;;;;4990847;28;20229;-67
2023/05/11 13:02:48;;;;;;;2.97;1.52;;;22.90;33.10;;;;;;4992894;28;20238;-67
2023/05/11 13:05:17;;;;;;;2.97;1.40;;;22.80;32.80;;;;;;5000078;28;20206;-67